createdAt,value
2024-03-26T00:01:13.707Z,100.00
2024-03-26T00:03:41.251Z,100.00
2024-03-26T00:06:08.698Z,100.00
2024-03-26T00:08:36.153Z,100.00
2024-03-26T00:11:03.820Z,100.00
2024-03-26T00:13:31.687Z,100.00
2024-03-26T00:15:59.247Z,100.00
2024-03-26T00:18:26.629Z,100.00
2024-03-26T00:20:54.047Z,100.00
2024-03-26T00:23:21.500Z,100.00
2024-03-26T00:25:50.289Z,100.00
2024-03-26T00:28:17.752Z,100.00
2024-03-26T00:30:45.300Z,100.00
2024-03-26T00:33:12.959Z,100.00
2024-03-26T00:35:40.441Z,100.00
2024-03-26T00:38:08.627Z,100.00
2024-03-26T00:40:36.042Z,100.00
2024-03-26T00:43:03.515Z,100.00
2024-03-26T00:45:31.100Z,100.00
2024-03-26T00:47:58.613Z,100.00
2024-03-26T00:50:26.179Z,100.00
2024-03-26T00:52:53.524Z,100.00
2024-03-26T00:55:20.945Z,100.00
2024-03-26T00:57:48.389Z,100.00
2024-03-26T01:00:16.425Z,100.00
2024-03-26T01:02:43.991Z,100.00
2024-03-26T01:05:11.723Z,100.00
2024-03-26T01:07:39.179Z,100.00
2024-03-26T01:10:07.737Z,100.00
2024-03-26T01:12:35.421Z,100.00
2024-03-26T01:15:03.181Z,100.00
2024-03-26T01:17:30.654Z,100.00
2024-03-26T01:19:58.202Z,100.00
2024-03-26T01:22:25.649Z,100.00
2024-03-26T01:24:53.208Z,100.00
2024-03-26T01:27:20.766Z,100.00
2024-03-26T01:29:48.222Z,100.00
2024-03-26T01:32:15.678Z,100.00
2024-03-26T01:34:43.438Z,100.00
2024-03-26T01:37:10.997Z,100.00
2024-03-26T01:39:38.453Z,100.00
2024-03-26T01:42:06.009Z,100.00
2024-03-26T01:44:34.180Z,100.00
2024-03-26T01:47:01.634Z,100.00
2024-03-26T01:49:31.097Z,100.00
2024-03-26T01:51:58.593Z,100.00
2024-03-26T01:54:26.151Z,100.00
2024-03-26T01:56:53.710Z,100.00
2024-03-26T01:59:21.299Z,100.00
2024-03-26T02:01:48.720Z,100.00
2024-03-26T02:04:16.482Z,100.00
2024-03-26T02:06:44.558Z,100.00
2024-03-26T02:09:12.012Z,100.00
2024-03-26T02:11:41.417Z,100.00
2024-03-26T02:14:08.864Z,100.00
2024-03-26T02:16:36.523Z,100.00
2024-03-26T02:19:03.977Z,100.00
2024-03-26T02:21:31.947Z,100.00
2024-03-26T02:23:59.503Z,100.00
2024-03-26T02:26:27.060Z,100.00
2024-03-26T02:28:57.695Z,100.00
2024-03-26T02:31:25.262Z,100.00
2024-03-26T02:33:52.713Z,100.00
2024-03-26T02:36:20.262Z,100.00
2024-03-26T02:38:47.878Z,100.00
2024-03-26T02:41:15.389Z,100.00
2024-03-26T02:43:43.240Z,100.00
2024-03-26T02:46:10.695Z,100.00
2024-03-26T02:48:38.149Z,100.00
2024-03-26T02:51:05.604Z,100.00
2024-03-26T02:53:33.470Z,100.00
2024-03-26T02:56:00.943Z,100.00
2024-03-26T02:58:28.587Z,100.00
2024-03-26T03:01:15.803Z,100.00
2024-03-26T03:03:43.263Z,100.00
2024-03-26T03:06:10.819Z,100.00
2024-03-26T03:08:38.679Z,100.00
2024-03-26T03:11:06.441Z,100.00
2024-03-26T03:13:33.900Z,100.00
2024-03-26T03:16:01.370Z,100.00
2024-03-26T03:18:28.910Z,100.00
2024-03-26T03:20:56.451Z,100.00
2024-03-26T03:23:23.891Z,100.00
2024-03-26T03:25:57.754Z,100.00
2024-03-26T03:28:25.293Z,100.00
2024-03-26T03:30:53.252Z,100.00
2024-03-26T03:33:20.812Z,100.00
2024-03-26T03:35:51.503Z,100.00
2024-03-26T03:38:18.999Z,100.00
2024-03-26T03:40:46.448Z,100.00
2024-03-26T03:43:14.318Z,100.00
2024-03-26T03:45:41.878Z,100.00
2024-03-26T03:48:10.158Z,100.00
2024-03-26T03:50:37.626Z,100.00
2024-03-26T03:53:05.373Z,100.00
2024-03-26T03:55:32.820Z,100.00
2024-03-26T03:58:00.277Z,100.00
2024-03-26T04:00:27.745Z,100.00
2024-03-26T04:02:55.197Z,100.00
2024-03-26T04:05:22.746Z,100.00
2024-03-26T04:07:50.205Z,100.00
2024-03-26T04:10:17.856Z,100.00
2024-03-26T04:12:45.310Z,100.00
2024-03-26T04:15:12.872Z,100.00
2024-03-26T04:17:40.430Z,100.00
2024-03-26T04:20:08.710Z,100.00
2024-03-26T04:22:36.159Z,100.00
2024-03-26T04:25:03.728Z,100.00
2024-03-26T04:27:31.183Z,100.00
2024-03-26T04:29:58.627Z,100.00
2024-03-26T04:32:26.396Z,100.00
2024-03-26T04:34:54.054Z,100.00
2024-03-26T04:37:23.467Z,100.00
2024-03-26T04:39:52.331Z,100.00
2024-03-26T04:42:20.719Z,100.00
2024-03-26T04:44:48.598Z,100.00
2024-03-26T04:47:16.038Z,100.00
2024-03-26T04:49:43.902Z,100.00
2024-03-26T04:52:11.456Z,100.00
2024-03-26T04:54:39.020Z,100.00
2024-03-26T04:57:06.500Z,100.00
2024-03-26T04:59:34.029Z,100.00
2024-03-26T05:02:01.482Z,100.00
2024-03-26T05:04:29.055Z,100.00
2024-03-26T05:06:56.494Z,100.00
2024-03-26T05:09:23.949Z,100.00
2024-03-26T05:11:52.043Z,100.00
2024-03-26T05:14:19.679Z,100.00
2024-03-26T05:16:47.444Z,100.00
2024-03-26T05:19:15.053Z,100.00
2024-03-26T05:21:42.420Z,100.00
2024-03-26T05:24:09.808Z,100.00
2024-03-26T05:26:37.263Z,100.00
2024-03-26T05:29:04.815Z,100.00
2024-03-26T05:31:32.280Z,100.00
2024-03-26T05:33:59.936Z,100.00
2024-03-26T05:36:28.619Z,100.00
2024-03-26T05:38:56.183Z,100.00
2024-03-26T05:41:23.662Z,100.00
2024-03-26T05:43:54.280Z,100.00
2024-03-26T05:46:21.817Z,100.00
2024-03-26T05:48:49.376Z,100.00
2024-03-26T05:51:16.831Z,100.00
2024-03-26T05:53:44.287Z,100.00
2024-03-26T05:56:12.081Z,100.00
2024-03-26T05:58:39.474Z,100.00
2024-03-26T06:01:06.942Z,100.00
2024-03-26T06:03:34.521Z,100.00
2024-03-26T06:06:02.197Z,100.00
2024-03-26T06:08:29.598Z,100.00
2024-03-26T06:10:57.099Z,100.00
2024-03-26T06:13:24.754Z,100.00
2024-03-26T06:15:52.204Z,100.00
2024-03-26T06:18:19.656Z,100.00
2024-03-26T06:20:47.525Z,100.00
2024-03-26T06:23:14.981Z,100.00
2024-03-26T06:25:43.049Z,100.00
2024-03-26T06:28:10.568Z,100.00
2024-03-26T06:30:38.790Z,100.00
2024-03-26T06:33:06.239Z,100.00
2024-03-26T06:35:33.690Z,100.00
2024-03-26T06:38:01.250Z,100.00
2024-03-26T06:40:28.806Z,100.00
2024-03-26T06:42:56.265Z,100.00
2024-03-26T06:45:23.923Z,100.00
2024-03-26T06:47:52.525Z,100.00
2024-03-26T06:50:21.095Z,100.00
2024-03-26T06:52:49.063Z,100.00
2024-03-26T06:55:17.453Z,100.00
2024-03-26T06:57:45.300Z,100.00
2024-03-26T07:00:18.459Z,100.00
2024-03-26T07:02:52.079Z,100.00
2024-03-26T07:05:20.265Z,100.00
2024-03-26T07:07:47.867Z,100.00
2024-03-26T07:10:15.667Z,100.00
2024-03-26T07:12:43.652Z,100.00
2024-03-26T07:15:12.031Z,100.00
2024-03-26T07:17:39.795Z,100.00
2024-03-26T07:20:10.642Z,100.00
2024-03-26T07:22:41.357Z,100.00
2024-03-26T07:25:10.137Z,100.00
2024-03-26T07:31:58.027Z,100.00
2024-03-26T07:34:25.666Z,100.00
2024-03-26T07:36:53.891Z,100.00
2024-03-26T07:39:21.459Z,100.00
2024-03-26T07:41:49.014Z,100.00
2024-03-26T07:44:19.472Z,100.00
2024-03-26T07:46:50.088Z,100.00
2024-03-26T07:49:18.245Z,100.00
2024-03-26T07:51:46.446Z,100.00
2024-03-26T07:54:14.117Z,100.00
2024-03-26T07:56:41.946Z,100.00
2024-03-26T07:59:29.224Z,100.00
2024-03-26T08:01:56.808Z,100.00
2024-03-26T08:04:24.444Z,100.00
2024-03-26T08:06:52.515Z,100.00
2024-03-26T08:09:20.113Z,100.00
2024-03-26T08:11:47.794Z,100.00
2024-03-26T08:14:15.495Z,100.00
2024-03-26T08:16:43.153Z,100.00
2024-03-26T08:19:11.121Z,100.00
2024-03-26T08:21:38.680Z,100.00
2024-03-26T08:24:06.547Z,100.00
2024-03-26T08:26:34.923Z,100.00
2024-03-26T08:29:02.517Z,100.00
2024-03-26T08:31:30.691Z,100.00
2024-03-26T08:33:58.315Z,100.00
2024-03-26T08:36:25.971Z,100.00
2024-03-26T08:38:54.256Z,100.00
2024-03-26T08:41:22.118Z,100.00
2024-03-26T08:43:52.733Z,100.00
2024-03-26T08:46:20.458Z,100.00
2024-03-26T08:48:48.602Z,100.00
2024-03-26T08:51:16.057Z,100.00
2024-03-26T08:53:43.520Z,100.00
2024-03-26T08:56:19.102Z,100.00
2024-03-26T08:58:53.351Z,100.00
2024-03-26T09:01:21.014Z,100.00
2024-03-26T09:03:48.568Z,100.00
2024-03-26T09:06:16.839Z,100.00
2024-03-26T09:08:44.426Z,100.00
2024-03-26T09:11:12.366Z,100.00
2024-03-26T09:13:41.664Z,100.00
2024-03-26T09:16:09.442Z,100.00
2024-03-26T09:18:36.994Z,100.00
2024-03-26T09:21:05.271Z,100.00
2024-03-26T09:23:32.826Z,98.31
2024-03-26T09:26:00.412Z,95.67
2024-03-26T09:28:29.673Z,93.71
2024-03-26T09:30:57.163Z,93.35
2024-03-26T09:33:24.823Z,93.04
2024-03-26T09:35:53.305Z,90.67
2024-03-26T09:38:32.166Z,89.04
2024-03-26T09:41:04.244Z,87.44
2024-03-26T09:43:32.175Z,86.58
2024-03-26T09:45:59.772Z,86.62
2024-03-26T09:48:28.479Z,85.86
2024-03-26T09:50:56.011Z,84.81
2024-03-26T09:53:23.754Z,82.64
2024-03-26T09:55:51.965Z,81.94
2024-03-26T09:58:19.580Z,82.36
2024-03-26T10:00:53.245Z,82.05
2024-03-26T10:03:21.608Z,80.50
2024-03-26T10:05:49.221Z,78.09
2024-03-26T10:08:16.915Z,78.29
2024-03-26T10:10:44.576Z,77.97
2024-03-26T10:13:13.161Z,75.64
2024-03-26T10:15:41.084Z,73.63
2024-03-26T10:18:09.296Z,73.23
2024-03-26T10:20:38.391Z,73.43
2024-03-26T10:23:06.874Z,70.35
2024-03-26T10:25:35.309Z,68.99
2024-03-26T10:28:03.505Z,67.06
2024-03-26T10:30:31.185Z,67.04
2024-03-26T10:33:00.125Z,66.63
2024-03-26T10:35:31.160Z,66.58
2024-03-26T10:38:06.777Z,65.61
2024-03-26T10:40:40.507Z,62.51
2024-03-26T10:43:10.642Z,60.89
2024-03-26T10:45:49.523Z,57.62
2024-03-26T10:48:30.843Z,55.71
2024-03-26T10:51:00.134Z,54.64
2024-03-26T10:53:30.925Z,56.17
2024-03-26T10:55:59.218Z,57.79
2024-03-26T10:58:27.272Z,58.37
2024-03-26T11:00:54.805Z,58.26
2024-03-26T11:03:22.336Z,59.03
2024-03-26T11:05:49.873Z,58.55
2024-03-26T11:08:20.325Z,56.29
2024-03-26T11:11:01.537Z,56.07
2024-03-26T11:13:29.614Z,55.63
2024-03-26T11:15:57.176Z,54.89
2024-03-26T11:18:32.712Z,55.58
2024-03-26T11:21:04.960Z,56.45
2024-03-26T11:23:52.865Z,55.78
2024-03-26T11:26:24.849Z,55.75
2024-03-26T11:28:52.343Z,55.17
2024-03-26T11:31:20.462Z,54.98
2024-03-26T11:33:54.224Z,54.74
2024-03-26T11:36:21.911Z,55.04
2024-03-26T11:38:49.622Z,54.84
2024-03-26T11:41:17.197Z,54.66
2024-03-26T11:43:44.675Z,55.04
2024-03-26T11:46:14.151Z,55.06
2024-03-26T11:48:41.853Z,55.30
2024-03-26T11:51:09.483Z,55.36
2024-03-26T11:53:40.137Z,54.75
2024-03-26T11:56:07.981Z,54.44
2024-03-26T11:58:38.006Z,53.58
2024-03-26T12:01:06.985Z,52.25
2024-03-26T12:03:37.219Z,50.87
2024-03-26T12:06:06.042Z,49.86
2024-03-26T12:08:33.610Z,50.48
2024-03-26T12:11:02.042Z,50.60
2024-03-26T12:13:29.601Z,50.57
2024-03-26T12:16:00.708Z,52.04
2024-03-26T12:18:28.250Z,54.27
2024-03-26T12:20:57.389Z,54.88
2024-03-26T12:23:26.580Z,53.15
2024-03-26T12:25:56.659Z,52.85
2024-03-26T12:28:24.471Z,52.16
2024-03-26T12:30:52.955Z,51.82
2024-03-26T12:33:20.819Z,51.77
2024-03-26T12:35:48.580Z,51.91
2024-03-26T12:38:16.084Z,52.33
2024-03-26T12:40:43.639Z,52.20
2024-03-26T12:43:11.182Z,52.07
2024-03-26T12:45:38.812Z,50.93
2024-03-26T12:48:07.855Z,50.96
2024-03-26T12:50:35.581Z,50.72
2024-03-26T12:53:03.231Z,50.37
2024-03-26T12:55:30.898Z,51.86
2024-03-26T13:09:24.777Z,51.32
2024-03-26T13:11:53.469Z,50.37
2024-03-26T13:14:21.134Z,50.61
2024-03-26T13:16:48.691Z,50.02
2024-03-26T13:19:16.249Z,49.38
2024-03-26T13:21:46.532Z,49.54
2024-03-26T13:24:14.132Z,49.88
2024-03-26T13:26:41.713Z,50.08
2024-03-26T13:29:09.562Z,49.12
2024-03-26T13:31:37.639Z,48.56
2024-03-26T13:34:05.508Z,48.58
2024-03-26T13:36:33.562Z,49.00
2024-03-26T13:39:01.645Z,49.49
2024-03-26T13:41:29.297Z,49.92
2024-03-26T13:43:56.989Z,49.29
2024-03-26T13:46:24.623Z,47.26
2024-03-26T13:48:52.195Z,47.96
2024-03-26T13:51:19.959Z,48.67
2024-03-26T13:53:47.629Z,48.62
2024-03-26T13:56:15.265Z,48.05
2024-03-26T13:58:42.824Z,47.95
2024-03-26T14:01:10.488Z,47.99
2024-03-26T14:03:38.040Z,48.14
2024-03-26T14:06:05.713Z,48.60
2024-03-26T14:08:34.182Z,48.47
2024-03-26T14:11:02.378Z,48.27
2024-03-26T14:13:30.343Z,48.24
2024-03-26T14:15:57.887Z,48.06
2024-03-26T14:18:25.343Z,48.37
2024-03-26T14:20:52.879Z,48.96
2024-03-26T14:23:20.882Z,49.13
2024-03-26T14:25:49.856Z,48.54
2024-03-26T14:28:17.570Z,48.28
2024-03-26T14:30:45.063Z,48.61
2024-03-26T14:33:12.691Z,48.38
2024-03-26T14:35:40.429Z,48.23
2024-03-26T14:38:08.173Z,47.24
2024-03-26T14:40:35.825Z,46.43
2024-03-26T14:43:03.493Z,47.34
2024-03-26T14:45:32.171Z,47.80
2024-03-26T14:48:00.545Z,48.12
2024-03-26T14:50:28.729Z,48.26
2024-03-26T14:52:56.686Z,48.09
2024-03-26T14:55:24.864Z,48.12
2024-03-26T14:57:52.434Z,47.70
2024-03-26T15:00:20.625Z,47.63
2024-03-26T15:02:49.835Z,47.75
2024-03-26T15:05:20.357Z,47.08
2024-03-26T15:07:52.660Z,47.40
2024-03-26T15:10:20.280Z,46.90
2024-03-26T15:12:47.945Z,46.73
2024-03-26T15:15:16.513Z,47.27
2024-03-26T15:17:59.231Z,47.59
2024-03-26T15:20:27.077Z,47.08
2024-03-26T15:22:54.682Z,46.98
2024-03-26T15:25:23.314Z,46.67
2024-03-26T15:28:09.637Z,46.93
2024-03-26T15:30:55.822Z,47.22
2024-03-26T15:33:23.678Z,47.35
2024-03-26T15:35:51.427Z,47.50
2024-03-26T15:38:21.651Z,47.33
2024-03-26T15:40:50.139Z,47.28
2024-03-26T15:43:18.730Z,47.29
2024-03-26T15:45:48.110Z,47.08
2024-03-26T15:48:17.120Z,46.80
2024-03-26T15:50:44.763Z,46.73
2024-03-26T15:53:12.293Z,46.51
2024-03-26T15:55:40.096Z,45.95
2024-03-26T15:58:07.643Z,46.09
2024-03-26T16:00:35.724Z,45.85
2024-03-26T16:03:03.431Z,45.84
2024-03-26T16:05:31.548Z,46.26
2024-03-26T16:07:59.145Z,46.97
2024-03-26T16:12:58.496Z,47.96
2024-03-26T16:15:26.086Z,48.41
2024-03-26T16:17:54.165Z,48.77
2024-03-26T16:20:21.642Z,49.43
2024-03-26T16:22:49.176Z,49.91
2024-03-26T16:25:16.752Z,50.39
2024-03-26T16:27:45.793Z,50.95
2024-03-26T16:30:13.641Z,51.39
2024-03-26T16:32:41.254Z,51.86
2024-03-26T16:35:09.725Z,52.36
2024-03-26T16:37:37.174Z,52.94
2024-03-26T16:40:07.916Z,53.06
2024-03-26T16:42:35.879Z,53.35
2024-03-26T16:45:04.093Z,53.93
2024-03-26T16:47:31.710Z,54.30
2024-03-26T16:49:59.302Z,54.70
2024-03-26T16:52:27.354Z,55.26
2024-03-26T16:54:55.015Z,56.19
2024-03-26T16:57:22.560Z,57.00
2024-03-26T16:59:50.116Z,58.07
2024-03-26T17:02:17.983Z,58.94
2024-03-26T17:04:47.287Z,60.06
2024-03-26T17:07:15.270Z,61.10
2024-03-26T17:09:42.735Z,62.09
2024-03-26T17:12:10.333Z,63.02
2024-03-26T17:14:38.256Z,64.00
2024-03-26T17:17:13.443Z,64.56
2024-03-26T17:19:42.179Z,65.19
2024-03-26T17:22:10.561Z,65.88
2024-03-26T17:24:37.955Z,66.59
2024-03-26T17:27:05.644Z,67.14
2024-03-26T17:29:33.592Z,67.21
2024-03-26T17:32:01.266Z,67.42
2024-03-26T17:34:29.038Z,67.98
2024-03-26T17:36:56.800Z,68.99
2024-03-26T17:39:25.216Z,70.19
2024-03-26T17:41:52.838Z,70.84
2024-03-26T17:44:20.716Z,71.73
2024-03-26T17:46:49.080Z,72.75
2024-03-26T17:49:16.843Z,73.66
2024-03-26T17:51:44.521Z,74.67
2024-03-26T17:54:12.276Z,76.31
2024-03-26T17:56:39.825Z,77.83
2024-03-26T17:59:07.689Z,79.01
2024-03-26T18:01:35.890Z,80.07
2024-03-26T18:04:03.423Z,81.45
2024-03-26T18:06:30.899Z,82.69
2024-03-26T18:08:58.746Z,83.98
2024-03-26T18:11:26.401Z,85.57
2024-03-26T18:13:53.956Z,87.68
2024-03-26T18:16:21.419Z,90.25
2024-03-26T18:18:49.690Z,92.60
2024-03-26T18:21:17.450Z,94.86
2024-03-26T18:23:45.044Z,96.53
2024-03-26T18:26:12.824Z,97.41
2024-03-26T18:28:41.192Z,98.63
2024-03-26T18:31:10.769Z,99.22
2024-03-26T18:33:38.499Z,98.94
2024-03-26T18:36:06.387Z,98.73
2024-03-26T18:38:34.977Z,98.47
2024-03-26T18:41:06.780Z,98.39
2024-03-26T18:43:38.684Z,98.06
2024-03-26T18:46:12.776Z,96.95
2024-03-26T18:48:40.517Z,96.84
2024-03-26T18:51:08.125Z,97.27
2024-03-26T18:53:37.084Z,97.74
2024-03-26T18:56:12.762Z,99.02
2024-03-26T18:58:41.032Z,99.88
2024-03-26T19:01:13.197Z,100.00
2024-03-26T19:03:41.062Z,100.00
2024-03-26T19:06:09.233Z,100.00
2024-03-26T19:08:36.896Z,100.00
2024-03-26T19:11:05.067Z,100.00
2024-03-26T19:13:33.236Z,100.00
2024-03-26T19:16:02.232Z,100.00
2024-03-26T19:18:32.653Z,100.00
2024-03-26T19:21:01.748Z,100.00
2024-03-26T19:23:32.232Z,100.00
2024-03-26T19:26:05.938Z,100.00
2024-03-26T19:28:33.845Z,100.00
2024-03-26T19:31:04.176Z,100.00
2024-03-26T19:33:31.826Z,100.00
2024-03-26T19:36:07.067Z,100.00
2024-03-26T19:38:35.134Z,100.00
2024-03-26T19:41:03.508Z,100.00
2024-03-26T19:43:32.100Z,100.00
2024-03-26T19:46:04.947Z,100.00
2024-03-26T19:48:32.865Z,100.00
2024-03-26T19:51:01.006Z,100.00
2024-03-26T19:53:28.980Z,100.00
2024-03-26T19:55:58.896Z,100.00
2024-03-26T19:58:26.426Z,100.00
2024-03-26T20:01:03.864Z,100.00
2024-03-26T20:03:31.440Z,100.00
2024-03-26T20:06:00.666Z,100.00
2024-03-26T20:08:28.565Z,100.00
2024-03-26T20:10:56.837Z,100.00
2024-03-26T20:13:25.210Z,100.00
2024-03-26T20:15:53.079Z,100.00
2024-03-26T20:18:20.746Z,100.00
2024-03-26T20:20:57.816Z,100.00
2024-03-26T20:23:26.295Z,100.00
2024-03-26T20:26:08.472Z,100.00
2024-03-26T20:28:36.371Z,100.00
2024-03-26T20:31:12.828Z,100.00
2024-03-26T20:33:40.648Z,100.00
2024-03-26T20:36:08.658Z,100.00
2024-03-26T20:38:36.322Z,100.00
2024-03-26T20:41:05.172Z,100.00
2024-03-26T20:43:33.379Z,100.00
2024-03-26T20:46:02.165Z,100.00
2024-03-26T20:48:30.163Z,100.00
2024-03-26T20:50:58.413Z,100.00
2024-03-26T20:53:26.792Z,100.00
2024-03-26T20:55:54.344Z,100.00
2024-03-26T20:58:21.902Z,100.00
2024-03-26T21:00:49.460Z,100.00
2024-03-26T21:03:17.139Z,100.00
2024-03-26T21:05:44.781Z,100.00
2024-03-26T21:08:12.347Z,100.00
2024-03-26T21:10:39.941Z,100.00
2024-03-26T21:13:07.730Z,100.00
2024-03-26T21:15:35.222Z,100.00
2024-03-26T21:18:11.590Z,100.00
2024-03-26T21:20:47.431Z,100.00
2024-03-26T21:23:14.987Z,100.00
2024-03-26T21:25:42.647Z,100.00
2024-03-26T21:28:10.214Z,100.00
2024-03-26T21:30:37.843Z,100.00
2024-03-26T21:33:08.803Z,100.00
2024-03-26T21:35:39.433Z,100.00
2024-03-26T21:38:06.988Z,100.00
2024-03-26T21:40:34.631Z,100.00
2024-03-26T21:43:03.026Z,100.00
2024-03-26T21:45:30.536Z,100.00
2024-03-26T21:47:58.243Z,100.00
2024-03-26T21:50:25.907Z,100.00
2024-03-26T21:52:53.464Z,100.00
2024-03-26T21:55:21.027Z,100.00
2024-03-26T21:57:49.193Z,100.00
2024-03-26T22:00:18.472Z,100.00
2024-03-26T22:02:48.200Z,100.00
2024-03-26T22:05:15.862Z,100.00
2024-03-26T22:07:43.539Z,100.00
2024-03-26T22:10:11.091Z,100.00
2024-03-26T22:12:38.639Z,100.00
2024-03-26T22:15:07.015Z,100.00
2024-03-26T22:17:34.488Z,100.00
2024-03-26T22:20:03.767Z,100.00
2024-03-26T22:22:31.222Z,100.00
2024-03-26T22:24:58.797Z,100.00
2024-03-26T22:27:26.354Z,100.00
2024-03-26T22:29:53.892Z,100.00
2024-03-26T22:32:21.322Z,100.00
2024-03-26T22:34:48.764Z,100.00
2024-03-26T22:37:16.261Z,100.00
2024-03-26T22:39:43.715Z,100.00
2024-03-26T22:42:11.174Z,100.00
2024-03-26T22:44:39.244Z,100.00
2024-03-26T22:47:07.616Z,100.00
2024-03-26T22:49:35.072Z,100.00
2024-03-26T22:52:02.536Z,100.00
2024-03-26T22:54:30.188Z,100.00
2024-03-26T22:56:57.748Z,100.00
2024-03-26T22:59:25.406Z,100.00
2024-03-26T23:01:53.171Z,100.00
2024-03-26T23:04:20.625Z,100.00
2024-03-26T23:06:48.077Z,100.00
2024-03-26T23:09:15.540Z,100.00
2024-03-26T23:11:42.989Z,100.00
2024-03-26T23:14:10.656Z,100.00
2024-03-26T23:16:38.103Z,100.00
2024-03-26T23:19:09.281Z,100.00
2024-03-26T23:21:37.027Z,100.00
2024-03-26T23:24:05.498Z,100.00
2024-03-26T23:26:32.948Z,100.00
2024-03-26T23:29:00.511Z,100.00
2024-03-26T23:31:28.469Z,100.00
2024-03-26T23:33:56.026Z,100.00
2024-03-26T23:36:23.490Z,100.00
2024-03-26T23:38:50.941Z,100.00
2024-03-26T23:41:18.367Z,100.00
2024-03-26T23:43:45.851Z,100.00
2024-03-26T23:46:13.264Z,100.00
2024-03-26T23:48:40.760Z,100.00
2024-03-26T23:51:09.550Z,100.00
2024-03-26T23:53:37.104Z,100.00
2024-03-26T23:56:05.459Z,100.00
2024-03-26T23:58:33.143Z,100.00
